Mortons Gap, Kentucky
Current Conditions -  °F | °C
As of 5:55 PM on Saturday 22 Nov 2014 (Local Time) from K2I0 Reporting Station
Clear Clear  
Wind Chill: 61°   Ceiling: Unl
Heat Index: 61°   Visibility: 10mi
Dew Point: 36°   Wind: 7mph
Humidity: 40%   Direction: 170°S
Pressure: 30.06"   Gusts: NA
Location:  37.24°N, 87.48°W
Report Text: K2I0 222355Z AUTO 17006KT 10SM CLR 16/02 A3006 RMK AO2 T01590024 10199 20157
Loading
Personal Weather Stations






























Interactive Weather Map New forecast layout! Learn more

10-Day Weather Forecast

Advertisements
Track Severe Weather on mobile